Time;durP1;ratioP1;P1;durP2;ratioP2;P2;SDS_P1;SDS_P2;PMS_P1;PMS_P2;Temp;Humidity;BMP_temperature;BMP_pressure;BME280_temperature;BME280_humidity;BME280_pressure;Samples;Min_cycle;Max_cycle;Signal;HPM_P1;HPM_P2
2022/07/13 00:01:30;;;;;;;;;;;19.70;53.80;;;;;;5142490;27;19933;-47
2022/07/13 00:03:56;;;;;;;;;;;19.70;55.10;;;;;;5146449;27;19929;-48
2022/07/13 00:06:22;;;;;;;;;;;20.70;57.60;;;;;;5144177;27;19927;-47
2022/07/13 00:08:48;;;;;;;;;;;21.40;57.60;;;;;;5141499;27;19923;-49
2022/07/13 00:11:14;;;;;;;;;;;21.10;55.40;;;;;;5146601;27;19927;-46
2022/07/13 00:13:39;;;;;;;;;;;20.40;54.60;;;;;;5141679;27;19923;-46
2022/07/13 00:16:05;;;;;;;;;;;20.00;54.20;;;;;;5142027;27;19977;-50
2022/07/13 00:18:31;;;;;;;;;;;20.10;53.30;;;;;;5146632;27;20455;-47
2022/07/13 00:20:57;;;;;;;;;;;19.80;53.80;;;;;;5141421;27;19926;-47
2022/07/13 00:23:23;;;;;;;;;;;19.80;53.40;;;;;;5146106;27;19923;-49
2022/07/13 00:25:49;;;;;;;;;;;19.80;53.30;;;;;;5123372;27;19966;-46
2022/07/13 00:28:14;;;;;;;;;;;19.80;53.30;;;;;;5143881;27;19997;-47
2022/07/13 00:30:41;;;;;;;;;;;20.50;57.30;;;;;;5147161;27;19923;-47
2022/07/13 00:33:07;;;;;;;;;;;21.30;58.10;;;;;;5141199;27;19929;-49
2022/07/13 00:35:33;;;;;;;;;;;21.30;55.60;;;;;;5122339;27;20150;-47
2022/07/13 00:37:59;;;;;;;;;;;20.50;54.50;;;;;;5146250;27;19923;-49
2022/07/13 00:40:25;;;;;;;;;;;19.90;54.50;;;;;;5121959;27;19934;-52
2022/07/13 00:42:50;;;;;;;;;;;19.90;53.80;;;;;;5146372;27;20516;-50
2022/07/13 00:45:16;;;;;;;;;;;19.80;53.30;;;;;;5141688;27;19976;-47
2022/07/13 00:47:42;;;;;;;;;;;19.80;52.90;;;;;;5143079;27;19927;-48
2022/07/13 00:50:08;;;;;;;;;;;20.30;56.90;;;;;;5146732;27;19923;-48
2022/07/13 00:52:37;;;;;;;;;;;21.20;57.70;;;;;;5122648;27;19923;-52
2022/07/13 00:55:03;;;;;;;;;;;21.50;55.20;;;;;;5140119;27;20217;-51
2022/07/13 00:57:29;;;;;;;;;;;20.30;54.90;;;;;;5126442;27;19974;-50
2022/07/13 00:59:55;;;;;;;;;;;20.20;53.90;;;;;;5122140;27;19931;-48
2022/07/13 01:02:21;;;;;;;;;;;20.10;53.20;;;;;;5127982;27;19960;-55
2022/07/13 01:04:46;;;;;;;;;;;19.80;53.30;;;;;;5128281;27;20429;-50
2022/07/13 01:07:12;;;;;;;;;;;19.80;53.10;;;;;;5143912;27;19923;-47
2022/07/13 01:09:38;;;;;;;;;;;19.70;53.00;;;;;;5130872;27;20014;-46
2022/07/13 01:12:05;;;;;;;;;;;20.40;57.40;;;;;;5144144;27;19930;-48
2022/07/13 01:14:30;;;;;;;;;;;21.30;57.40;;;;;;5143530;27;20312;-52
2022/07/13 01:16:57;;;;;;;;;;;21.40;54.80;;;;;;5147137;27;19933;-49
2022/07/13 01:19:23;;;;;;;;;;;20.50;54.20;;;;;;5142958;27;19937;-51
2022/07/13 01:21:49;;;;;;;;;;;20.20;53.70;;;;;;5143538;27;20390;-55
2022/07/13 01:24:15;;;;;;;;;;;19.90;53.30;;;;;;5128777;27;19927;-51
2022/07/13 01:26:41;;;;;;;;;;;19.90;52.80;;;;;;5143260;27;20424;-49
2022/07/13 01:29:07;;;;;;;;;;;19.80;52.70;;;;;;5149127;27;19976;-50
2022/07/13 01:31:33;;;;;;;;;;;20.30;57.40;;;;;;5143606;27;20390;-49
2022/07/13 01:33:59;;;;;;;;;;;21.20;57.40;;;;;;5142332;27;19933;-48
2022/07/13 01:36:25;;;;;;;;;;;21.50;55.00;;;;;;5111821;27;19927;-46
2022/07/13 01:38:51;;;;;;;;;;;20.60;54.50;;;;;;5124373;27;19937;-49
2022/07/13 01:41:17;;;;;;;;;;;20.20;53.70;;;;;;5124575;27;20456;-47
2022/07/13 01:43:42;;;;;;;;;;;20.20;53.10;;;;;;5148620;27;19929;-46
2022/07/13 01:46:09;;;;;;;;;;;20.10;52.60;;;;;;5143079;27;20014;-49
2022/07/13 01:48:35;;;;;;;;;;;19.90;52.80;;;;;;5148598;27;19923;-48
2022/07/13 01:51:01;;;;;;;;;;;20.30;56.50;;;;;;5143389;27;19971;-49
2022/07/13 01:53:27;;;;;;;;;;;21.10;57.30;;;;;;5141387;27;20465;-49
2022/07/13 01:55:52;;;;;;;;;;;21.50;55.00;;;;;;5147770;27;19923;-47
2022/07/13 01:58:18;;;;;;;;;;;20.60;54.10;;;;;;5142896;27;19927;-47
2022/07/13 02:00:44;;;;;;;;;;;20.00;53.80;;;;;;5142727;27;20266;-50
2022/07/13 02:03:10;;;;;;;;;;;19.90;53.30;;;;;;5148222;27;19947;-47
2022/07/13 02:05:36;;;;;;;;;;;19.80;52.80;;;;;;5143081;27;19923;-46
2022/07/13 02:08:01;;;;;;;;;;;19.80;54.20;;;;;;5148318;27;20594;-48
2022/07/13 02:10:36;;;;;;;;;;;20.70;57.40;;;;;;5141319;27;19935;-50
2022/07/13 02:13:09;;;;;;;;;;;21.50;56.20;;;;;;5141626;27;19923;-47
2022/07/13 02:15:35;;;;;;;;;;;21.00;54.00;;;;;;5148170;27;20370;-46
2022/07/13 02:18:00;;;;;;;;;;;20.30;53.90;;;;;;5142466;27;20514;-46
2022/07/13 02:20:26;;;;;;;;;;;20.00;53.20;;;;;;5142651;27;19923;-48
2022/07/13 02:22:52;;;;;;;;;;;19.80;53.10;;;;;;5148175;27;20026;-46
2022/07/13 02:25:18;;;;;;;;;;;19.90;52.40;;;;;;5142767;27;19934;-46
2022/07/13 02:27:44;;;;;;;;;;;19.60;53.00;;;;;;5142298;27;20572;-47
2022/07/13 02:30:10;;;;;;;;;;;20.30;56.70;;;;;;5145988;27;20068;-48
2022/07/13 02:32:36;;;;;;;;;;;21.20;57.20;;;;;;5142085;27;19931;-50
2022/07/13 02:35:02;;;;;;;;;;;21.40;54.90;;;;;;5129216;27;20438;-47
2022/07/13 02:37:27;;;;;;;;;;;20.40;54.10;;;;;;5142154;27;19930;-45
2022/07/13 02:39:55;;;;;;;;;;;20.10;53.60;;;;;;5141685;27;19992;-49
2022/07/13 02:42:22;;;;;;;;;;;19.90;53.00;;;;;;5140862;27;20285;-46
2022/07/13 02:44:49;;;;;;;;;;;19.80;52.60;;;;;;5142278;27;19923;-47
2022/07/13 02:47:14;;;;;;;;;;;20.00;55.60;;;;;;5141352;27;20383;-48
2022/07/13 02:49:40;;;;;;;;;;;20.80;57.50;;;;;;5146640;27;20322;-49
2022/07/13 02:52:06;;;;;;;;;;;21.50;56.10;;;;;;5121315;27;19930;-47
2022/07/13 02:54:32;;;;;;;;;;;21.00;54.40;;;;;;5146986;27;19923;-55
2022/07/13 02:56:58;;;;;;;;;;;20.30;54.20;;;;;;5143464;27;19931;-45
2022/07/13 02:59:23;;;;;;;;;;;20.10;53.30;;;;;;5141238;27;19923;-45
2022/07/13 03:01:49;;;;;;;;;;;20.00;52.90;;;;;;5147579;27;20377;-46
2022/07/13 03:04:15;;;;;;;;;;;20.00;52.50;;;;;;5141979;27;19975;-45
2022/07/13 03:06:41;;;;;;;;;;;19.80;52.60;;;;;;5140526;27;20065;-49
2022/07/13 03:09:07;;;;;;;;;;;19.90;53.60;;;;;;5146731;27;19954;-46
2022/07/13 03:11:33;;;;;;;;;;;20.60;56.70;;;;;;5141686;27;19931;-48
2022/07/13 03:14:01;;;;;;;;;;;21.30;57.20;;;;;;5144098;27;20378;-54
2022/07/13 03:16:27;;;;;;;;;;;21.10;54.90;;;;;;5146104;27;19959;-45
2022/07/13 03:18:53;;;;;;;;;;;20.30;54.20;;;;;;5141134;27;19937;-45
2022/07/13 03:21:19;;;;;;;;;;;20.00;53.50;;;;;;5128677;27;19931;-46
2022/07/13 03:23:45;;;;;;;;;;;19.90;52.80;;;;;;5140935;27;20366;-47
2022/07/13 03:26:11;;;;;;;;;;;19.80;52.60;;;;;;5140239;27;19962;-46
2022/07/13 03:28:37;;;;;;;;;;;20.00;53.30;;;;;;5146673;27;19930;-46
2022/07/13 03:31:02;;;;;;;;;;;20.60;57.80;;;;;;5141477;27;19931;-48
2022/07/13 03:33:28;;;;;;;;;;;21.30;57.00;;;;;;5141804;27;19954;-47
2022/07/13 03:35:54;;;;;;;;;;;21.00;55.10;;;;;;5146168;27;19930;-46
2022/07/13 03:38:21;;;;;;;;;;;20.40;53.80;;;;;;5141357;27;19987;-45
2022/07/13 03:40:47;;;;;;;;;;;19.90;53.80;;;;;;5146828;27;20026;-46
2022/07/13 03:43:13;;;;;;;;;;;20.00;52.50;;;;;;5140211;27;20069;-45
2022/07/13 03:45:39;;;;;;;;;;;19.80;52.60;;;;;;5140249;27;20427;-47
2022/07/13 03:48:05;;;;;;;;;;;20.50;57.30;;;;;;5146488;27;19946;-48
2022/07/13 03:50:31;;;;;;;;;;;21.30;57.60;;;;;;5141180;27;19930;-50
2022/07/13 03:52:57;;;;;;;;;;;21.00;55.10;;;;;;5141241;27;19923;-47
2022/07/13 03:55:22;;;;;;;;;;;20.30;54.50;;;;;;5146025;27;19931;-48
2022/07/13 03:57:48;;;;;;;;;;;20.20;53.60;;;;;;5141001;27;19930;-47
2022/07/13 04:00:14;;;;;;;;;;;20.00;52.90;;;;;;5146258;27;19983;-46
2022/07/13 04:02:40;;;;;;;;;;;19.90;52.70;;;;;;5139570;27;19974;-44
2022/07/13 04:05:06;;;;;;;;;;;19.90;52.70;;;;;;5140663;27;19923;-47
2022/07/13 04:07:33;;;;;;;;;;;20.40;57.90;;;;;;5146268;27;19923;-46
2022/07/13 04:09:58;;;;;;;;;;;21.30;58.10;;;;;;5141308;27;19923;-48
2022/07/13 04:12:24;;;;;;;;;;;21.30;55.90;;;;;;5122300;27;20279;-48
2022/07/13 04:14:50;;;;;;;;;;;20.50;55.00;;;;;;5146006;27;19945;-47
2022/07/13 04:17:16;;;;;;;;;;;20.20;53.90;;;;;;5140991;27;19923;-48
2022/07/13 04:19:41;;;;;;;;;;;20.00;53.50;;;;;;5144563;27;19973;-50
2022/07/13 04:22:07;;;;;;;;;;;19.80;53.30;;;;;;5140779;27;19927;-45
2022/07/13 04:24:33;;;;;;;;;;;19.90;53.10;;;;;;5140728;27;19931;-50
2022/07/13 04:26:59;;;;;;;;;;;20.30;58.30;;;;;;5146051;27;19956;-46
2022/07/13 04:29:24;;;;;;;;;;;21.00;59.90;;;;;;5140948;27;19931;-50
2022/07/13 04:31:50;;;;;;;;;;;21.50;57.50;;;;;;5140134;27;19923;-47
2022/07/13 04:34:16;;;;;;;;;;;20.60;55.90;;;;;;5149238;27;19923;-46
2022/07/13 04:36:43;;;;;;;;;;;20.30;54.50;;;;;;5144037;27;19927;-45
2022/07/13 04:39:09;;;;;;;;;;;20.10;53.80;;;;;;5144590;27;19927;-52
2022/07/13 04:41:35;;;;;;;;;;;19.80;53.30;;;;;;5147288;27;19970;-47
2022/07/13 04:44:00;;;;;;;;;;;19.90;52.90;;;;;;5143889;27;19923;-47
2022/07/13 04:46:27;;;;;;;;;;;19.80;53.60;;;;;;5149657;27;20283;-48
2022/07/13 04:48:53;;;;;;;;;;;20.50;58.40;;;;;;5144090;27;20301;-46
2022/07/13 04:51:19;;;;;;;;;;;21.20;59.30;;;;;;5125209;27;19930;-47
2022/07/13 04:53:45;;;;;;;;;;;21.40;57.10;;;;;;5149369;27;20302;-44
2022/07/13 04:56:11;;;;;;;;;;;20.30;56.30;;;;;;5142755;27;19923;-44
2022/07/13 04:58:37;;;;;;;;;;;20.10;54.60;;;;;;5142849;27;20438;-46
2022/07/13 05:01:06;;;;;;;;;;;20.00;54.20;;;;;;5149110;27;19927;-45
2022/07/13 05:03:32;;;;;;;;;;;19.80;54.30;;;;;;5143707;27;19923;-45
2022/07/13 05:05:58;;;;;;;;;;;19.90;53.40;;;;;;5149420;27;19961;-45
2022/07/13 05:08:25;;;;;;;;;;;20.00;53.40;;;;;;5142934;27;19930;-45
2022/07/13 05:10:50;;;;;;;;;;;20.00;54.10;;;;;;5144186;27;19923;-48
2022/07/13 05:13:16;;;;;;;;;;;20.70;59.00;;;;;;5148967;27;19926;-46
2022/07/13 05:15:42;;;;;;;;;;;21.30;59.60;;;;;;5142074;27;19930;-48
2022/07/13 05:18:08;;;;;;;;;;;21.10;57.70;;;;;;5125022;27;20357;-48
2022/07/13 05:20:34;;;;;;;;;;;20.30;56.10;;;;;;5149105;27;20294;-46
2022/07/13 05:22:59;;;;;;;;;;;20.20;54.70;;;;;;5143776;27;19976;-43
2022/07/13 05:25:25;;;;;;;;;;;20.00;54.50;;;;;;5149118;27;19923;-45
2022/07/13 05:27:51;;;;;;;;;;;19.80;54.10;;;;;;5143213;27;19929;-44
2022/07/13 05:30:17;;;;;;;;;;;19.80;53.90;;;;;;5143507;27;20351;-45
2022/07/13 05:32:42;;;;;;;;;;;19.80;54.90;;;;;;5148453;27;19923;-45
2022/07/13 05:35:08;;;;;;;;;;;20.60;59.30;;;;;;5142550;27;19980;-48
2022/07/13 05:37:34;;;;;;;;;;;21.30;60.50;;;;;;5143010;27;19927;-47
2022/07/13 05:40:00;;;;;;;;;;;21.60;58.30;;;;;;5148628;27;19948;-44
2022/07/13 05:42:27;;;;;;;;;;;20.40;57.30;;;;;;5143263;27;20015;-45
2022/07/13 05:44:52;;;;;;;;;;;20.30;55.40;;;;;;5145692;27;20301;-50
2022/07/13 05:47:18;;;;;;;;;;;20.00;54.80;;;;;;5144978;27;19923;-44
2022/07/13 05:49:44;;;;;;;;;;;19.80;54.50;;;;;;5143197;27;19927;-46
2022/07/13 05:52:10;;;;;;;;;;;19.80;54.30;;;;;;5147031;27;19923;-48
2022/07/13 05:54:36;;;;;;;;;;;19.90;53.80;;;;;;5142447;27;19946;-46
2022/07/13 05:57:02;;;;;;;;;;;20.40;58.80;;;;;;5142856;27;19927;-46
2022/07/13 05:59:28;;;;;;;;;;;21.20;60.30;;;;;;5130138;27;19930;-44
2022/07/13 06:01:54;;;;;;;;;;;21.60;58.70;;;;;;5139603;27;19923;-45
2022/07/13 06:04:19;;;;;;;;;;;20.60;57.60;;;;;;5144042;27;20026;-52
2022/07/13 06:06:46;;;;;;;;;;;20.20;56.20;;;;;;5147204;27;19987;-45
2022/07/13 06:09:11;;;;;;;;;;;20.00;55.30;;;;;;5142211;27;19927;-44
2022/07/13 06:11:37;;;;;;;;;;;20.20;54.30;;;;;;5146962;27;19950;-45
2022/07/13 06:14:03;;;;;;;;;;;20.10;54.10;;;;;;5142496;27;20382;-48
2022/07/13 06:16:29;;;;;;;;;;;20.10;53.70;;;;;;5142725;27;19934;-47
2022/07/13 06:18:55;;;;;;;;;;;19.80;54.00;;;;;;5148238;27;19930;-45
2022/07/13 06:21:21;;;;;;;;;;;20.00;54.50;;;;;;5142030;27;19976;-46
2022/07/13 06:23:47;;;;;;;;;;;20.60;59.80;;;;;;5142642;27;19923;-47
2022/07/13 06:26:12;;;;;;;;;;;21.30;60.70;;;;;;5148310;27;19927;-47
2022/07/13 06:28:38;;;;;;;;;;;21.30;59.10;;;;;;5141351;27;19931;-47
2022/07/13 06:31:04;;;;;;;;;;;20.30;57.70;;;;;;5128523;27;20324;-47
2022/07/13 06:33:30;;;;;;;;;;;20.00;56.60;;;;;;5142394;27;20009;-46
2022/07/13 06:35:55;;;;;;;;;;;20.10;55.40;;;;;;5142373;27;19958;-46
2022/07/13 06:38:21;;;;;;;;;;;19.80;55.20;;;;;;5148007;27;19962;-44
2022/07/13 06:40:47;;;;;;;;;;;20.00;54.10;;;;;;5141565;27;20401;-44
2022/07/13 06:43:13;;;;;;;;;;;20.10;54.00;;;;;;5138175;27;20200;-43
2022/07/13 06:45:39;;;;;;;;;;;19.90;54.90;;;;;;5147410;27;20884;-45
2022/07/13 06:48:05;;;;;;;;;;;20.60;59.70;;;;;;5140544;27;19927;-45
2022/07/13 06:50:31;;;;;;;;;;;21.30;61.00;;;;;;5147515;27;19929;-46
2022/07/13 06:52:57;;;;;;;;;;;21.20;59.20;;;;;;5142083;27;20013;-43
2022/07/13 06:55:23;;;;;;;;;;;20.40;57.40;;;;;;5141651;27;19970;-45
2022/07/13 06:57:48;;;;;;;;;;;20.10;56.40;;;;;;5147294;27;20289;-45
2022/07/13 07:00:14;;;;;;;;;;;20.00;55.50;;;;;;5141750;27;19992;-43
2022/07/13 07:02:40;;;;;;;;;;;19.90;54.90;;;;;;5141900;27;19935;-45
2022/07/13 07:05:09;;;;;;;;;;;20.00;54.30;;;;;;5146186;27;19981;-44
2022/07/13 07:07:35;;;;;;;;;;;19.90;54.10;;;;;;5140822;27;19927;-45
2022/07/13 07:10:00;;;;;;;;;;;19.90;53.90;;;;;;5146648;27;20286;-51
2022/07/13 07:12:26;;;;;;;;;;;20.30;58.40;;;;;;5123727;27;19931;-43
2022/07/13 07:14:52;;;;;;;;;;;21.10;60.70;;;;;;5141641;27;19923;-47
2022/07/13 07:17:18;;;;;;;;;;;21.60;60.60;;;;;;5146413;27;19923;-47
2022/07/13 07:19:46;;;;;;;;;;;20.80;58.20;;;;;;5141584;27;19949;-44
2022/07/13 07:22:12;;;;;;;;;;;20.30;56.80;;;;;;5141271;27;19937;-43
2022/07/13 07:24:41;;;;;;;;;;;20.00;56.10;;;;;;5145137;27;19927;-44
2022/07/13 07:27:09;;;;;;;;;;;20.10;54.70;;;;;;5141071;27;19934;-49
2022/07/13 07:29:35;;;;;;;;;;;20.10;53.90;;;;;;5141333;27;20294;-45
2022/07/13 07:32:04;;;;;;;;;;;19.90;54.00;;;;;;5146841;27;20026;-42
2022/07/13 07:34:30;;;;;;;;;;;19.90;53.90;;;;;;5141377;27;19923;-45
2022/07/13 07:36:56;;;;;;;;;;;19.90;53.60;;;;;;5146497;27;20010;-45
2022/07/13 07:39:22;;;;;;;;;;;20.70;58.60;;;;;;5122612;27;19923;-46
2022/07/13 07:41:48;;;;;;;;;;;21.30;60.30;;;;;;5140483;27;20061;-45
2022/07/13 07:44:14;;;;;;;;;;;21.40;58.60;;;;;;5126651;27;20432;-46
2022/07/13 07:46:40;;;;;;;;;;;20.50;57.20;;;;;;5140948;27;19933;-43
2022/07/13 07:49:06;;;;;;;;;;;20.30;56.30;;;;;;5141247;27;20360;-48
2022/07/13 07:51:32;;;;;;;;;;;20.10;55.20;;;;;;5146840;27;20297;-43
2022/07/13 07:53:58;;;;;;;;;;;20.20;54.20;;;;;;5140509;27;19975;-45
2022/07/13 07:56:24;;;;;;;;;;;19.90;54.10;;;;;;5146541;27;19927;-44
2022/07/13 07:58:50;;;;;;;;;;;19.80;54.10;;;;;;5140956;27;19923;-44
2022/07/13 08:01:15;;;;;;;;;;;19.80;53.60;;;;;;5139281;27;20019;-45
2022/07/13 08:03:41;;;;;;;;;;;20.00;53.20;;;;;;5145939;27;20758;-45
2022/07/13 08:06:07;;;;;;;;;;;19.90;53.50;;;;;;5140807;27;19923;-46
2022/07/13 08:08:33;;;;;;;;;;;19.80;53.60;;;;;;5121508;27;20449;-44
2022/07/13 08:10:59;;;;;;;;;;;20.00;53.00;;;;;;5146367;27;19924;-46
2022/07/13 08:13:25;;;;;;;;;;;20.50;57.50;;;;;;5140431;27;19935;-44
2022/07/13 08:15:50;;;;;;;;;;;21.20;59.20;;;;;;5145240;27;19976;-56
2022/07/13 08:18:18;;;;;;;;;;;21.70;58.10;;;;;;5140702;27;20452;-50
2022/07/13 08:20:44;;;;;;;;;;;20.70;57.20;;;;;;5139512;27;19923;-45
2022/07/13 08:25:54;;;;;;;;;;;20.40;55.10;;;;;;5140854;27;20009;-47
2022/07/13 08:28:20;;;;;;;;;;;20.10;55.30;;;;;;5140685;27;19929;-44
2022/07/13 08:30:46;;;;;;;;;;;20.30;54.40;;;;;;5145289;27;19923;-45
2022/07/13 08:33:12;;;;;;;;;;;20.20;54.10;;;;;;5140838;27;19979;-50
2022/07/13 08:38:40;;;;;;;;;;;19.90;52.70;;;;;;5143842;27;19953;-49
2022/07/13 08:41:06;;;;;;;;;;;19.90;52.10;;;;;;5140106;27;19923;-49
2022/07/13 08:43:33;;;;;;;;;;;20.60;58.00;;;;;;5140408;27;19972;-50
2022/07/13 08:46:02;;;;;;;;;;;21.30;58.70;;;;;;5145865;27;19931;-47
2022/07/13 08:48:31;;;;;;;;;;;21.70;56.90;;;;;;5139669;27;19923;-51
2022/07/13 08:50:57;;;;;;;;;;;20.90;55.30;;;;;;5140556;27;19929;-49
2022/07/13 08:53:23;;;;;;;;;;;20.40;54.40;;;;;;5145536;27;20404;-48
2022/07/13 08:55:49;;;;;;;;;;;20.30;53.10;;;;;;5138731;27;19940;-48
2022/07/13 08:58:15;;;;;;;;;;;20.20;52.50;;;;;;5145144;27;19923;-48
2022/07/13 09:00:42;;;;;;;;;;;20.20;52.00;;;;;;5121847;27;19931;-50
2022/07/13 09:03:08;;;;;;;;;;;19.90;51.90;;;;;;5140387;27;20297;-49
2022/07/13 09:05:34;;;;;;;;;;;20.00;52.50;;;;;;5145841;27;20030;-50
2022/07/13 09:08:03;;;;;;;;;;;20.50;57.80;;;;;;5139558;27;20325;-48
2022/07/13 09:10:29;;;;;;;;;;;21.30;57.60;;;;;;5140306;27;20297;-45
2022/07/13 09:12:55;;;;;;;;;;;21.80;55.80;;;;;;5145083;27;19934;-53
2022/07/13 09:15:21;;;;;;;;;;;20.90;54.80;;;;;;5138906;27;19923;-46
2022/07/13 09:17:47;;;;;;;;;;;20.70;53.40;;;;;;5143972;27;19926;-55
2022/07/13 09:20:13;;;;;;;;;;;20.30;52.70;;;;;;5124355;27;19946;-48
2022/07/13 09:22:52;;;;;;;;;;;20.30;51.80;;;;;;5143354;27;19931;-45
2022/07/13 09:25:25;;;;;;;;;;;20.20;51.30;;;;;;5148313;27;20043;-48
2022/07/13 09:27:52;;;;;;;;;;;20.00;51.50;;;;;;5143405;27;19923;-52
2022/07/13 09:30:25;;;;;;;;;;;20.70;56.10;;;;;;5143460;27;19923;-47
2022/07/13 09:32:52;;;;;;;;;;;21.40;56.30;;;;;;5147075;27;19927;-51
2022/07/13 09:35:17;;;;;;;;;;;21.70;54.60;;;;;;5142861;27;19952;-46
2022/07/13 09:37:43;;;;;;;;;;;20.80;53.90;;;;;;5142959;27;19957;-50
2022/07/13 09:40:09;;;;;;;;;;;20.50;52.70;;;;;;5148903;27;20022;-45
2022/07/13 09:42:36;;;;;;;;;;;20.50;51.80;;;;;;5143170;27;19923;-51
2022/07/13 09:47:53;;;;;;;;;;;20.20;51.10;;;;;;5148532;27;20422;-45
2022/07/13 09:50:22;;;;;;;;;;;19.90;51.10;;;;;;5141981;27;20030;-48
2022/07/13 09:52:48;;;;;;;;;;;20.60;55.00;;;;;;5142260;27;19929;-49
2022/07/13 09:55:22;;;;;;;;;;;21.30;55.50;;;;;;5148451;27;19927;-48
2022/07/13 09:57:49;;;;;;;;;;;21.80;53.80;;;;;;5142931;27;19927;-46
2022/07/13 10:00:17;;;;;;;;;;;20.90;53.00;;;;;;5129975;27;19923;-48
2022/07/13 10:02:44;;;;;;;;;;;20.60;52.40;;;;;;5142328;27;20374;-46
2022/07/13 10:05:10;;;;;;;;;;;20.40;51.80;;;;;;5142977;27;20026;-46
2022/07/13 10:07:35;;;;;;;;;;;20.20;51.40;;;;;;5148006;27;19923;-46
2022/07/13 10:10:04;;;;;;;;;;;20.20;50.90;;;;;;5141182;27;19923;-47
2022/07/13 10:12:30;;;;;;;;;;;20.10;50.60;;;;;;5142488;27;19923;-49
2022/07/13 10:14:55;;;;;;;;;;;20.00;52.70;;;;;;5147863;27;19923;-50
2022/07/13 10:17:22;;;;;;;;;;;20.80;55.10;;;;;;5124308;27;19923;-52
2022/07/13 10:19:57;;;;;;;;;;;21.70;54.00;;;;;;5144916;27;19927;-56
2022/07/13 10:22:24;;;;;;;;;;;21.30;52.90;;;;;;5144836;27;19929;-46
2022/07/13 10:24:54;;;;;;;;;;;20.60;52.50;;;;;;5120298;27;19923;-50
2022/07/13 10:27:26;;;;;;;;;;;20.40;51.70;;;;;;5142549;27;20376;-48
2022/07/13 10:30:02;;;;;;;;;;;20.40;50.50;;;;;;5142122;27;19929;-50
2022/07/13 10:32:28;;;;;;;;;;;20.10;50.90;;;;;;5142213;27;19927;-48
2022/07/13 10:34:58;;;;;;;;;;;20.00;50.50;;;;;;5147680;27;19923;-52
2022/07/13 10:37:25;;;;;;;;;;;20.10;52.00;;;;;;5123791;27;20020;-54
2022/07/13 10:40:11;;;;;;;;;;;20.80;54.30;;;;;;5141660;27;19929;-47
2022/07/13 10:43:03;;;;;;;;;;;21.80;53.00;;;;;;5125483;27;19927;-46
2022/07/13 10:45:38;;;;;;;;;;;21.40;52.30;;;;;;5145547;27;20075;-50
2022/07/13 10:48:09;;;;;;;;;;;20.80;52.00;;;;;;5141219;27;19946;-48
2022/07/13 10:50:46;;;;;;;;;;;20.40;51.10;;;;;;5146905;27;21230;-51
2022/07/13 10:53:12;;;;;;;;;;;20.30;50.70;;;;;;5145559;27;19972;-50
2022/07/13 10:55:45;;;;;;;;;;;20.10;50.40;;;;;;5142215;27;20332;-46
2022/07/13 10:58:49;;;;;;;;;;;20.10;49.90;;;;;;5146861;27;19927;-48
2022/07/13 11:01:30;;;;;;;;;;;20.10;52.10;;;;;;5043105;28;19929;-51
2022/07/13 11:03:56;;;;;;;;;;;21.30;53.10;;;;;;5036567;28;19931;-48
2022/07/13 11:06:23;;;;;;;;;;;21.80;51.60;;;;;;5095114;27;19923;-49
2022/07/13 11:09:08;;;;;;;;;;;20.90;51.70;;;;;;5147043;27;20030;-49
2022/07/13 11:11:34;;;;;;;;;;;20.50;51.40;;;;;;5141644;27;20042;-48
2022/07/13 11:13:59;;;;;;;;;;;20.30;50.70;;;;;;5144043;27;19973;-57
2022/07/13 11:16:46;;;;;;;;;;;20.10;50.40;;;;;;5144947;27;20401;-52
2022/07/13 11:19:11;;;;;;;;;;;20.30;49.80;;;;;;5141261;27;19927;-46
2022/07/13 11:21:56;;;;;;;;;;;20.00;49.40;;;;;;5146004;27;19938;-53
2022/07/13 11:27:08;;;;;;;;;;;20.30;52.60;;;;;;5141618;27;19929;-47
2022/07/13 11:29:37;;;;;;;;;;;21.30;52.10;;;;;;5123088;27;20366;-53
2022/07/13 11:32:03;;;;;;;;;;;21.80;50.50;;;;;;5147108;27;19983;-51
2022/07/13 11:34:28;;;;;;;;;;;20.70;51.20;;;;;;5120682;27;19923;-46
2022/07/13 11:36:55;;;;;;;;;;;20.70;50.00;;;;;;5146970;27;19970;-47
2022/07/13 11:39:24;;;;;;;;;;;20.40;50.10;;;;;;5141151;27;19979;-49
2022/07/13 11:41:51;;;;;;;;;;;20.30;49.40;;;;;;5138906;27;20449;-49
2022/07/13 11:44:19;;;;;;;;;;;20.30;48.80;;;;;;5146134;27;19934;-50
2022/07/13 11:46:45;;;;;;;;;;;20.20;48.70;;;;;;5122784;27;20017;-46
2022/07/13 11:49:11;;;;;;;;;;;20.10;51.10;;;;;;5123208;27;20015;-47
2022/07/13 11:51:37;;;;;;;;;;;21.00;51.70;;;;;;5146674;27;20440;-48
2022/07/13 11:54:07;;;;;;;;;;;21.90;50.10;;;;;;5140602;27;19983;-47
2022/07/13 11:56:33;;;;;;;;;;;21.30;49.90;;;;;;5143947;27;20014;-52
2022/07/13 11:58:58;;;;;;;;;;;20.80;50.10;;;;;;5122659;27;19930;-48
2022/07/13 12:01:25;;;;;;;;;;;20.50;49.60;;;;;;5140148;27;19931;-49
2022/07/13 12:03:51;;;;;;;;;;;20.40;48.90;;;;;;5146366;27;19957;-45
2022/07/13 12:06:17;;;;;;;;;;;20.20;49.20;;;;;;5140985;27;19934;-47
2022/07/13 12:08:43;;;;;;;;;;;20.20;48.50;;;;;;5122140;27;19970;-46
2022/07/13 12:11:09;;;;;;;;;;;20.20;48.00;;;;;;5127116;27;20026;-45
2022/07/13 12:13:36;;;;;;;;;;;20.10;48.00;;;;;;5140844;27;19923;-46
2022/07/13 12:16:02;;;;;;;;;;;20.40;50.80;;;;;;5122426;27;19930;-48
2022/07/13 12:18:29;;;;;;;;;;;21.40;50.00;;;;;;5144495;27;19933;-49
2022/07/13 12:20:55;;;;;;;;;;;21.80;48.80;;;;;;5140203;27;20227;-48
2022/07/13 12:23:21;;;;;;;;;;;20.90;49.20;;;;;;5145698;27;20030;-48
2022/07/13 12:25:48;;;;;;;;;;;20.60;48.90;;;;;;5140476;27;20087;-46
2022/07/13 12:28:13;;;;;;;;;;;20.50;48.50;;;;;;5122066;27;19971;-46
2022/07/13 12:30:56;;;;;;;;;;;20.40;48.10;;;;;;5145591;27;19927;-47
2022/07/13 12:33:23;;;;;;;;;;;20.10;48.20;;;;;;5122402;27;19933;-45
2022/07/13 12:36:00;;;;;;;;;;;20.10;48.00;;;;;;5139646;27;20013;-50
2022/07/13 12:38:25;;;;;;;;;;;20.60;50.40;;;;;;5125173;27;19927;-45
2022/07/13 12:40:59;;;;;;;;;;;21.70;48.40;;;;;;5140592;27;19958;-44
2022/07/13 12:43:29;;;;;;;;;;;21.30;48.40;;;;;;5138718;27;20320;-46
2022/07/13 12:45:56;;;;;;;;;;;20.60;48.90;;;;;;5146139;27;19929;-45
2022/07/13 12:48:26;;;;;;;;;;;20.50;48.40;;;;;;5139898;27;19923;-45
2022/07/13 12:51:01;;;;;;;;;;;20.30;48.30;;;;;;5140541;27;19956;-54
2022/07/13 12:53:46;;;;;;;;;;;20.30;48.20;;;;;;5145424;27;20071;-52
2022/07/13 12:56:12;;;;;;;;;;;20.00;48.80;;;;;;5143059;27;19979;-47
2022/07/13 12:58:38;;;;;;;;;;;21.00;49.80;;;;;;5123480;27;19923;-46
2022/07/13 13:01:04;;;;;;;;;;;21.90;47.80;;;;;;5130884;27;20326;-47
2022/07/13 13:03:29;;;;;;;;;;;21.10;48.40;;;;;;5125355;27;19931;-46
2022/07/13 13:05:55;;;;;;;;;;;20.60;48.90;;;;;;5148523;27;19971;-48
2022/07/13 13:08:21;;;;;;;;;;;20.40;48.90;;;;;;5143726;27;19930;-51
2022/07/13 13:10:47;;;;;;;;;;;20.30;48.60;;;;;;5143802;27;20366;-51
2022/07/13 13:13:12;;;;;;;;;;;20.10;48.30;;;;;;5147477;27;20522;-48
2022/07/13 13:15:38;;;;;;;;;;;20.00;48.40;;;;;;5143249;27;19969;-49
2022/07/13 13:18:04;;;;;;;;;;;19.90;49.40;;;;;;5143290;27;19983;-48
2022/07/13 13:20:30;;;;;;;;;;;20.90;49.90;;;;;;5130627;27;20285;-50
2022/07/13 13:22:55;;;;;;;;;;;21.80;48.50;;;;;;5143632;27;19934;-49
2022/07/13 13:25:21;;;;;;;;;;;21.30;48.60;;;;;;5148357;27;19973;-49
2022/07/13 13:27:47;;;;;;;;;;;20.70;49.00;;;;;;5143263;27;19923;-46
2022/07/13 13:32:57;;;;;;;;;;;20.40;48.50;;;;;;5147795;27;20301;-46
2022/07/13 13:35:23;;;;;;;;;;;20.10;48.90;;;;;;5142970;27;19930;-44
2022/07/13 13:37:49;;;;;;;;;;;20.10;48.40;;;;;;5143069;27;20505;-50
2022/07/13 13:40:15;;;;;;;;;;;19.90;50.10;;;;;;5148727;27;19948;-49
2022/07/13 13:42:41;;;;;;;;;;;20.90;50.30;;;;;;5142848;27;19926;-47
2022/07/13 13:45:07;;;;;;;;;;;21.80;48.50;;;;;;5143131;27;19923;-47
2022/07/13 13:47:32;;;;;;;;;;;21.30;48.30;;;;;;5148439;27;19923;-48
2022/07/13 13:49:58;;;;;;;;;;;20.70;49.20;;;;;;5141293;27;19946;-48
2022/07/13 13:52:25;;;;;;;;;;;20.50;48.90;;;;;;5147999;27;19935;-48
2022/07/13 13:54:50;;;;;;;;;;;20.30;48.70;;;;;;5142865;27;19923;-50
2022/07/13 13:57:16;;;;;;;;;;;20.20;48.80;;;;;;5142724;27;20291;-45
2022/07/13 13:59:42;;;;;;;;;;;20.00;48.50;;;;;;5148457;27;19980;-45
2022/07/13 14:02:08;;;;;;;;;;;20.00;48.20;;;;;;5142065;27;19923;-46
2022/07/13 14:04:34;;;;;;;;;;;20.30;50.10;;;;;;5142409;27;19934;-49
2022/07/13 14:06:59;;;;;;;;;;;21.40;49.10;;;;;;5146865;27;20429;-53
2022/07/13 14:09:25;;;;;;;;;;;21.70;47.90;;;;;;5141467;27;19927;-48
2022/07/13 14:11:51;;;;;;;;;;;20.80;49.10;;;;;;5147768;27;20359;-45
2022/07/13 14:14:17;;;;;;;;;;;20.40;49.10;;;;;;5142545;27;19993;-45
2022/07/13 14:16:43;;;;;;;;;;;20.40;48.60;;;;;;5142868;27;19923;-45
2022/07/13 14:19:09;;;;;;;;;;;20.20;48.80;;;;;;5147495;27;19930;-46
2022/07/13 14:21:34;;;;;;;;;;;20.00;48.60;;;;;;5142777;27;20220;-47
2022/07/13 14:24:00;;;;;;;;;;;20.10;48.30;;;;;;5142473;27;20230;-48
2022/07/13 14:26:26;;;;;;;;;;;20.40;50.60;;;;;;5146434;27;19929;-49
2022/07/13 14:28:52;;;;;;;;;;;21.40;49.20;;;;;;5141611;27;19938;-45